Plainfield, Illinois
Current Conditions -  °F | °C
As of 11:35 PM on Friday 19 Dec 2014 (Local Time) from KLOT Reporting Station
Overcast Overcast  
Wind Chill: 24°   Ceiling: 2500
Heat Index: 29°   Visibility: 10mi
Dew Point: 25°   Wind: 5mph
Humidity: 85%   Direction: 210°SSW
Pressure: 30.27"   Gusts: NA
Location:  41.62°N, 88.2°W
Report Text: KLOT 200535Z AUTO 21004KT 10SM OVC025 M01/M04 A3027 RMK AO2 T10151037
Loading
Personal Weather Stations






























Interactive Weather Map New forecast layout! Learn more

10-Day Weather Forecast

Advertisements
Track Severe Weather on mobile